sensor_id;sensor_type;location;lat;lon;timestamp;temperature;humidity
29813;DHT22;16707;48.106;11.548;2022-12-29T00:00:10;4.00;99.90
29813;DHT22;16707;48.106;11.548;2022-12-29T00:02:37;3.90;99.90
29813;DHT22;16707;48.106;11.548;2022-12-29T00:05:05;3.80;99.90
29813;DHT22;16707;48.106;11.548;2022-12-29T00:07:35;3.70;99.90
29813;DHT22;16707;48.106;11.548;2022-12-29T00:10:05;3.80;99.90
29813;DHT22;16707;48.106;11.548;2022-12-29T00:12:33;3.70;99.90
29813;DHT22;16707;48.106;11.548;2022-12-29T00:15:13;3.70;99.90
29813;DHT22;16707;48.106;11.548;2022-12-29T00:17:58;3.70;99.90
29813;DHT22;16707;48.106;11.548;2022-12-29T00:20:27;3.90;99.90
29813;DHT22;16707;48.106;11.548;2022-12-29T00:23:13;3.90;99.90
29813;DHT22;16707;48.106;11.548;2022-12-29T00:25:58;3.90;99.90
29813;DHT22;16707;48.106;11.548;2022-12-29T00:28:46;3.90;99.90
29813;DHT22;16707;48.106;11.548;2022-12-29T00:31:30;3.80;99.90
29813;DHT22;16707;48.106;11.548;2022-12-29T00:34:15;3.80;99.90
29813;DHT22;16707;48.106;11.548;2022-12-29T00:37:00;3.70;99.90
29813;DHT22;16707;48.106;11.548;2022-12-29T00:39:28;3.80;99.90
29813;DHT22;16707;48.106;11.548;2022-12-29T00:42:13;3.80;99.90
29813;DHT22;16707;48.106;11.548;2022-12-29T00:44:57;3.80;99.90
29813;DHT22;16707;48.106;11.548;2022-12-29T00:47:24;3.80;99.90
29813;DHT22;16707;48.106;11.548;2022-12-29T00:49:51;3.60;99.90
29813;DHT22;16707;48.106;11.548;2022-12-29T00:52:19;3.60;99.90
29813;DHT22;16707;48.106;11.548;2022-12-29T00:54:48;3.50;99.90
29813;DHT22;16707;48.106;11.548;2022-12-29T00:57:18;3.50;99.90
29813;DHT22;16707;48.106;11.548;2022-12-29T00:59:45;3.50;99.90
29813;DHT22;16707;48.106;11.548;2022-12-29T01:02:16;3.60;99.90
29813;DHT22;16707;48.106;11.548;2022-12-29T01:04:42;3.50;99.90
29813;DHT22;16707;48.106;11.548;2022-12-29T01:07:09;3.50;99.90
29813;DHT22;16707;48.106;11.548;2022-12-29T01:09:41;3.40;99.90
29813;DHT22;16707;48.106;11.548;2022-12-29T01:12:27;3.30;99.90
29813;DHT22;16707;48.106;11.548;2022-12-29T01:15:11;3.40;99.90
29813;DHT22;16707;48.106;11.548;2022-12-29T01:17:39;3.30;99.90
29813;DHT22;16707;48.106;11.548;2022-12-29T01:20:09;3.20;99.90
29813;DHT22;16707;48.106;11.548;2022-12-29T01:22:37;3.10;99.90
29813;DHT22;16707;48.106;11.548;2022-12-29T01:25:05;3.00;99.90
29813;DHT22;16707;48.106;11.548;2022-12-29T01:27:34;3.00;99.90
29813;DHT22;16707;48.106;11.548;2022-12-29T01:30:02;3.00;99.90
29813;DHT22;16707;48.106;11.548;2022-12-29T01:32:38;3.00;99.90
29813;DHT22;16707;48.106;11.548;2022-12-29T01:35:05;3.10;99.90
29813;DHT22;16707;48.106;11.548;2022-12-29T01:37:32;3.20;99.90
29813;DHT22;16707;48.106;11.548;2022-12-29T01:40:02;3.30;99.90
29813;DHT22;16707;48.106;11.548;2022-12-29T01:42:29;3.30;99.90
29813;DHT22;16707;48.106;11.548;2022-12-29T01:44:58;3.40;99.90
29813;DHT22;16707;48.106;11.548;2022-12-29T01:47:30;3.40;99.90
29813;DHT22;16707;48.106;11.548;2022-12-29T01:50:03;3.40;99.90
29813;DHT22;16707;48.106;11.548;2022-12-29T01:52:33;3.40;99.90
29813;DHT22;16707;48.106;11.548;2022-12-29T01:55:02;3.50;99.90
29813;DHT22;16707;48.106;11.548;2022-12-29T01:57:32;3.50;99.90
29813;DHT22;16707;48.106;11.548;2022-12-29T02:00:04;3.60;99.90
29813;DHT22;16707;48.106;11.548;2022-12-29T02:02:33;3.60;99.90
29813;DHT22;16707;48.106;11.548;2022-12-29T02:05:08;3.60;99.90
29813;DHT22;16707;48.106;11.548;2022-12-29T02:07:42;3.60;99.90
29813;DHT22;16707;48.106;11.548;2022-12-29T02:10:10;3.60;99.90
29813;DHT22;16707;48.106;11.548;2022-12-29T02:12:40;3.70;99.90
29813;DHT22;16707;48.106;11.548;2022-12-29T02:15:11;3.70;99.90
29813;DHT22;16707;48.106;11.548;2022-12-29T02:17:59;3.80;99.90
29813;DHT22;16707;48.106;11.548;2022-12-29T02:21:14;3.70;99.90
29813;DHT22;16707;48.106;11.548;2022-12-29T02:27:01;3.70;99.90
29813;DHT22;16707;48.106;11.548;2022-12-29T02:29:53;3.70;99.90
29813;DHT22;16707;48.106;11.548;2022-12-29T02:32:29;3.90;99.90
29813;DHT22;16707;48.106;11.548;2022-12-29T02:35:08;4.10;99.90
29813;DHT22;16707;48.106;11.548;2022-12-29T02:37:42;4.20;99.90
29813;DHT22;16707;48.106;11.548;2022-12-29T02:40:22;4.20;99.90
29813;DHT22;16707;48.106;11.548;2022-12-29T02:42:57;4.20;99.90
29813;DHT22;16707;48.106;11.548;2022-12-29T02:45:30;4.40;99.90
29813;DHT22;16707;48.106;11.548;2022-12-29T02:48:09;4.40;99.90
29813;DHT22;16707;48.106;11.548;2022-12-29T02:50:43;4.50;99.60
29813;DHT22;16707;48.106;11.548;2022-12-29T02:53:13;4.50;99.40
29813;DHT22;16707;48.106;11.548;2022-12-29T02:55:47;4.60;99.00
29813;DHT22;16707;48.106;11.548;2022-12-29T02:58:17;4.70;98.70
29813;DHT22;16707;48.106;11.548;2022-12-29T03:00:56;4.60;98.60
29813;DHT22;16707;48.106;11.548;2022-12-29T03:03:50;4.60;98.40
29813;DHT22;16707;48.106;11.548;2022-12-29T03:06:33;4.80;97.90
29813;DHT22;16707;48.106;11.548;2022-12-29T03:09:13;4.90;97.40
29813;DHT22;16707;48.106;11.548;2022-12-29T03:11:50;5.00;96.90
29813;DHT22;16707;48.106;11.548;2022-12-29T03:14:42;5.00;96.60
29813;DHT22;16707;48.106;11.548;2022-12-29T03:20:19;5.10;96.30
29813;DHT22;16707;48.106;11.548;2022-12-29T03:22:49;5.20;95.70
29813;DHT22;16707;48.106;11.548;2022-12-29T03:25:22;5.30;95.40
29813;DHT22;16707;48.106;11.548;2022-12-29T03:27:52;5.30;95.20
29813;DHT22;16707;48.106;11.548;2022-12-29T03:30:25;5.40;94.80
29813;DHT22;16707;48.106;11.548;2022-12-29T03:32:58;5.50;94.10
29813;DHT22;16707;48.106;11.548;2022-12-29T03:35:39;5.60;93.70
29813;DHT22;16707;48.106;11.548;2022-12-29T03:38:24;5.70;93.30
29813;DHT22;16707;48.106;11.548;2022-12-29T03:40:55;5.80;92.90
29813;DHT22;16707;48.106;11.548;2022-12-29T03:43:23;5.80;92.70
29813;DHT22;16707;48.106;11.548;2022-12-29T03:45:59;6.00;92.00
29813;DHT22;16707;48.106;11.548;2022-12-29T03:48:27;6.10;91.70
29813;DHT22;16707;48.106;11.548;2022-12-29T03:50:56;6.10;91.50
29813;DHT22;16707;48.106;11.548;2022-12-29T03:53:23;6.10;91.70
29813;DHT22;16707;48.106;11.548;2022-12-29T03:55:50;6.20;91.20
29813;DHT22;16707;48.106;11.548;2022-12-29T03:58:17;6.20;90.90
29813;DHT22;16707;48.106;11.548;2022-12-29T04:00:44;6.10;91.10
29813;DHT22;16707;48.106;11.548;2022-12-29T04:03:14;6.10;90.90
29813;DHT22;16707;48.106;11.548;2022-12-29T04:05:41;6.10;91.00
29813;DHT22;16707;48.106;11.548;2022-12-29T04:08:09;6.20;90.90
29813;DHT22;16707;48.106;11.548;2022-12-29T04:10:42;6.30;90.50
29813;DHT22;16707;48.106;11.548;2022-12-29T04:13:10;6.40;89.70
29813;DHT22;16707;48.106;11.548;2022-12-29T04:15:36;6.40;89.70
29813;DHT22;16707;48.106;11.548;2022-12-29T04:18:03;6.40;89.50
29813;DHT22;16707;48.106;11.548;2022-12-29T04:20:33;6.50;89.40
29813;DHT22;16707;48.106;11.548;2022-12-29T04:23:19;6.50;89.40
29813;DHT22;16707;48.106;11.548;2022-12-29T04:25:46;6.40;89.50
29813;DHT22;16707;48.106;11.548;2022-12-29T04:28:14;6.40;89.20
29813;DHT22;16707;48.106;11.548;2022-12-29T04:30:41;6.40;89.80
29813;DHT22;16707;48.106;11.548;2022-12-29T04:33:08;6.40;89.00
29813;DHT22;16707;48.106;11.548;2022-12-29T04:35:41;6.50;88.60
29813;DHT22;16707;48.106;11.548;2022-12-29T04:38:11;6.40;88.80
29813;DHT22;16707;48.106;11.548;2022-12-29T04:40:41;6.50;88.10
29813;DHT22;16707;48.106;11.548;2022-12-29T04:43:09;6.50;87.50
29813;DHT22;16707;48.106;11.548;2022-12-29T04:45:43;6.60;87.40
29813;DHT22;16707;48.106;11.548;2022-12-29T04:48:13;6.60;86.70
29813;DHT22;16707;48.106;11.548;2022-12-29T04:50:48;6.70;86.20
29813;DHT22;16707;48.106;11.548;2022-12-29T04:53:18;6.70;85.90
29813;DHT22;16707;48.106;11.548;2022-12-29T04:55:52;6.80;85.30
29813;DHT22;16707;48.106;11.548;2022-12-29T04:58:22;6.90;84.50
29813;DHT22;16707;48.106;11.548;2022-12-29T05:00:50;6.90;83.80
29813;DHT22;16707;48.106;11.548;2022-12-29T05:03:23;6.90;84.20
29813;DHT22;16707;48.106;11.548;2022-12-29T05:05:53;6.70;84.90
29813;DHT22;16707;48.106;11.548;2022-12-29T05:08:20;6.70;84.40
29813;DHT22;16707;48.106;11.548;2022-12-29T05:10:53;6.80;84.20
29813;DHT22;16707;48.106;11.548;2022-12-29T05:13:22;6.80;84.20
29813;DHT22;16707;48.106;11.548;2022-12-29T05:15:50;6.90;84.10
29813;DHT22;16707;48.106;11.548;2022-12-29T05:18:17;6.90;84.10
29813;DHT22;16707;48.106;11.548;2022-12-29T05:20:44;6.90;83.70
29813;DHT22;16707;48.106;11.548;2022-12-29T05:23:12;6.90;84.10
29813;DHT22;16707;48.106;11.548;2022-12-29T05:25:47;6.80;85.20
29813;DHT22;16707;48.106;11.548;2022-12-29T05:28:22;6.70;84.80
29813;DHT22;16707;48.106;11.548;2022-12-29T05:30:49;6.70;84.80
29813;DHT22;16707;48.106;11.548;2022-12-29T05:33:17;6.70;85.10
29813;DHT22;16707;48.106;11.548;2022-12-29T05:35:44;6.70;84.50
29813;DHT22;16707;48.106;11.548;2022-12-29T05:38:15;6.80;84.60
29813;DHT22;16707;48.106;11.548;2022-12-29T05:40:45;6.80;83.80
29813;DHT22;16707;48.106;11.548;2022-12-29T05:43:12;6.80;84.60
29813;DHT22;16707;48.106;11.548;2022-12-29T05:45:41;6.80;84.70
29813;DHT22;16707;48.106;11.548;2022-12-29T05:48:08;6.80;84.90
29813;DHT22;16707;48.106;11.548;2022-12-29T05:50:37;6.80;85.00
29813;DHT22;16707;48.106;11.548;2022-12-29T05:53:13;6.70;85.30
29813;DHT22;16707;48.106;11.548;2022-12-29T05:55:40;6.80;85.30
29813;DHT22;16707;48.106;11.548;2022-12-29T05:58:10;6.80;85.80
29813;DHT22;16707;48.106;11.548;2022-12-29T06:00:37;6.70;85.60
29813;DHT22;16707;48.106;11.548;2022-12-29T06:03:05;6.70;85.80
29813;DHT22;16707;48.106;11.548;2022-12-29T06:05:32;6.70;85.70
29813;DHT22;16707;48.106;11.548;2022-12-29T06:08:02;6.70;85.50
29813;DHT22;16707;48.106;11.548;2022-12-29T06:10:30;6.60;86.70
29813;DHT22;16707;48.106;11.548;2022-12-29T06:12:56;6.70;86.30
29813;DHT22;16707;48.106;11.548;2022-12-29T06:15:23;6.60;86.30
29813;DHT22;16707;48.106;11.548;2022-12-29T06:17:59;6.70;85.90
29813;DHT22;16707;48.106;11.548;2022-12-29T06:20:30;6.60;86.50
29813;DHT22;16707;48.106;11.548;2022-12-29T06:22:57;6.50;86.30
29813;DHT22;16707;48.106;11.548;2022-12-29T06:25:24;6.40;86.90
29813;DHT22;16707;48.106;11.548;2022-12-29T06:27:51;6.30;87.70
29813;DHT22;16707;48.106;11.548;2022-12-29T06:30:18;6.20;88.50
29813;DHT22;16707;48.106;11.548;2022-12-29T06:32:47;6.20;88.80
29813;DHT22;16707;48.106;11.548;2022-12-29T06:35:17;6.10;89.00
29813;DHT22;16707;48.106;11.548;2022-12-29T06:37:45;6.10;89.40
29813;DHT22;16707;48.106;11.548;2022-12-29T06:40:13;6.10;89.40
29813;DHT22;16707;48.106;11.548;2022-12-29T06:42:39;6.10;90.00
29813;DHT22;16707;48.106;11.548;2022-12-29T06:45:10;6.10;90.00
29813;DHT22;16707;48.106;11.548;2022-12-29T06:47:39;6.10;90.20
29813;DHT22;16707;48.106;11.548;2022-12-29T06:50:07;6.10;90.00
29813;DHT22;16707;48.106;11.548;2022-12-29T06:52:35;6.10;90.00
29813;DHT22;16707;48.106;11.548;2022-12-29T06:55:04;6.20;89.70
29813;DHT22;16707;48.106;11.548;2022-12-29T06:57:31;6.20;89.90
29813;DHT22;16707;48.106;11.548;2022-12-29T07:00:07;6.20;90.00
29813;DHT22;16707;48.106;11.548;2022-12-29T07:02:34;6.10;90.10
29813;DHT22;16707;48.106;11.548;2022-12-29T07:05:01;6.10;90.00
29813;DHT22;16707;48.106;11.548;2022-12-29T07:07:32;6.10;90.10
29813;DHT22;16707;48.106;11.548;2022-12-29T07:09:59;6.10;90.20
29813;DHT22;16707;48.106;11.548;2022-12-29T07:12:29;6.00;90.60
29813;DHT22;16707;48.106;11.548;2022-12-29T07:14:56;6.10;90.00
29813;DHT22;16707;48.106;11.548;2022-12-29T07:17:23;6.10;90.30
29813;DHT22;16707;48.106;11.548;2022-12-29T07:19:50;6.20;90.20
29813;DHT22;16707;48.106;11.548;2022-12-29T07:22:18;6.20;90.00
29813;DHT22;16707;48.106;11.548;2022-12-29T07:24:47;6.20;89.50
29813;DHT22;16707;48.106;11.548;2022-12-29T07:27:17;6.30;89.10
29813;DHT22;16707;48.106;11.548;2022-12-29T07:29:45;6.50;87.70
29813;DHT22;16707;48.106;11.548;2022-12-29T07:32:15;6.40;87.30
29813;DHT22;16707;48.106;11.548;2022-12-29T07:34:42;6.40;87.20
29813;DHT22;16707;48.106;11.548;2022-12-29T07:37:11;6.30;87.40
29813;DHT22;16707;48.106;11.548;2022-12-29T07:39:41;6.20;88.90
29813;DHT22;16707;48.106;11.548;2022-12-29T07:42:08;6.10;89.30
29813;DHT22;16707;48.106;11.548;2022-12-29T07:44:35;6.10;88.70
29813;DHT22;16707;48.106;11.548;2022-12-29T07:47:04;6.10;89.10
29813;DHT22;16707;48.106;11.548;2022-12-29T07:49:32;6.10;88.80
29813;DHT22;16707;48.106;11.548;2022-12-29T07:51:59;6.00;89.30
29813;DHT22;16707;48.106;11.548;2022-12-29T07:54:29;6.10;89.50
29813;DHT22;16707;48.106;11.548;2022-12-29T07:56:56;6.20;88.60
29813;DHT22;16707;48.106;11.548;2022-12-29T07:59:25;6.20;88.40
29813;DHT22;16707;48.106;11.548;2022-12-29T08:01:54;6.30;87.90
29813;DHT22;16707;48.106;11.548;2022-12-29T08:04:26;6.60;86.90
29813;DHT22;16707;48.106;11.548;2022-12-29T08:06:53;6.80;86.70
29813;DHT22;16707;48.106;11.548;2022-12-29T08:09:20;6.80;85.40
29813;DHT22;16707;48.106;11.548;2022-12-29T08:11:50;6.90;84.70
29813;DHT22;16707;48.106;11.548;2022-12-29T08:14:19;6.90;84.50
29813;DHT22;16707;48.106;11.548;2022-12-29T08:16:51;6.90;84.60
29813;DHT22;16707;48.106;11.548;2022-12-29T08:19:18;6.90;84.40
29813;DHT22;16707;48.106;11.548;2022-12-29T08:21:47;7.00;83.80
29813;DHT22;16707;48.106;11.548;2022-12-29T08:24:14;7.00;84.10
29813;DHT22;16707;48.106;11.548;2022-12-29T08:26:41;7.10;83.00
29813;DHT22;16707;48.106;11.548;2022-12-29T08:29:11;7.10;82.70
29813;DHT22;16707;48.106;11.548;2022-12-29T08:31:38;7.20;82.10
29813;DHT22;16707;48.106;11.548;2022-12-29T08:34:11;7.20;82.10
29813;DHT22;16707;48.106;11.548;2022-12-29T08:36:40;7.20;81.60
29813;DHT22;16707;48.106;11.548;2022-12-29T08:39:08;7.20;81.30
29813;DHT22;16707;48.106;11.548;2022-12-29T08:41:37;7.30;81.40
29813;DHT22;16707;48.106;11.548;2022-12-29T08:44:06;7.50;81.10
29813;DHT22;16707;48.106;11.548;2022-12-29T08:46:34;7.80;79.50
29813;DHT22;16707;48.106;11.548;2022-12-29T08:49:00;8.20;78.00
29813;DHT22;16707;48.106;11.548;2022-12-29T08:51:28;8.50;76.50
29813;DHT22;16707;48.106;11.548;2022-12-29T08:53:54;8.70;75.60
29813;DHT22;16707;48.106;11.548;2022-12-29T08:56:23;8.80;75.80
29813;DHT22;16707;48.106;11.548;2022-12-29T08:58:51;8.80;74.30
29813;DHT22;16707;48.106;11.548;2022-12-29T09:01:20;8.90;73.20
29813;DHT22;16707;48.106;11.548;2022-12-29T09:03:50;8.90;73.10
29813;DHT22;16707;48.106;11.548;2022-12-29T09:06:18;8.90;72.90
29813;DHT22;16707;48.106;11.548;2022-12-29T09:08:45;8.80;73.10
29813;DHT22;16707;48.106;11.548;2022-12-29T09:11:15;8.80;72.20
29813;DHT22;16707;48.106;11.548;2022-12-29T09:13:47;8.70;72.50
29813;DHT22;16707;48.106;11.548;2022-12-29T09:16:15;8.80;72.40
29813;DHT22;16707;48.106;11.548;2022-12-29T09:18:43;8.80;72.30
29813;DHT22;16707;48.106;11.548;2022-12-29T09:21:11;8.90;72.00
29813;DHT22;16707;48.106;11.548;2022-12-29T09:23:39;9.10;69.70
29813;DHT22;16707;48.106;11.548;2022-12-29T09:26:08;9.10;70.20
29813;DHT22;16707;48.106;11.548;2022-12-29T09:28:38;9.10;70.30
29813;DHT22;16707;48.106;11.548;2022-12-29T09:31:06;9.30;69.40
29813;DHT22;16707;48.106;11.548;2022-12-29T09:33:33;9.40;69.30
29813;DHT22;16707;48.106;11.548;2022-12-29T09:36:00;9.60;68.60
29813;DHT22;16707;48.106;11.548;2022-12-29T09:38:28;9.80;67.00
29813;DHT22;16707;48.106;11.548;2022-12-29T09:40:57;10.00;67.00
29813;DHT22;16707;48.106;11.548;2022-12-29T09:44:03;10.30;65.10
29813;DHT22;16707;48.106;11.548;2022-12-29T09:46:36;10.70;64.40
29813;DHT22;16707;48.106;11.548;2022-12-29T09:49:13;11.10;64.70
29813;DHT22;16707;48.106;11.548;2022-12-29T09:51:47;11.30;62.60
29813;DHT22;16707;48.106;11.548;2022-12-29T09:54:38;11.40;61.60
29813;DHT22;16707;48.106;11.548;2022-12-29T09:57:15;11.50;61.30
29813;DHT22;16707;48.106;11.548;2022-12-29T09:59:44;11.50;59.40
29813;DHT22;16707;48.106;11.548;2022-12-29T10:02:23;11.40;58.70
29813;DHT22;16707;48.106;11.548;2022-12-29T10:04:53;11.30;59.00
29813;DHT22;16707;48.106;11.548;2022-12-29T10:07:31;11.40;57.90
29813;DHT22;16707;48.106;11.548;2022-12-29T10:10:18;11.30;57.70
29813;DHT22;16707;48.106;11.548;2022-12-29T10:13:02;11.30;57.00
29813;DHT22;16707;48.106;11.548;2022-12-29T10:15:49;11.20;57.40
29813;DHT22;16707;48.106;11.548;2022-12-29T10:21:25;11.20;56.90
29813;DHT22;16707;48.106;11.548;2022-12-29T10:23:55;11.10;56.70
29813;DHT22;16707;48.106;11.548;2022-12-29T10:26:27;11.20;56.70
29813;DHT22;16707;48.106;11.548;2022-12-29T10:28:58;11.20;56.60
29813;DHT22;16707;48.106;11.548;2022-12-29T10:31:33;11.20;56.30
29813;DHT22;16707;48.106;11.548;2022-12-29T10:34:18;11.20;56.70
29813;DHT22;16707;48.106;11.548;2022-12-29T10:36:48;11.10;56.40
29813;DHT22;16707;48.106;11.548;2022-12-29T10:39:21;11.00;56.70
29813;DHT22;16707;48.106;11.548;2022-12-29T10:41:57;11.00;57.10
29813;DHT22;16707;48.106;11.548;2022-12-29T10:44:29;11.10;57.00
29813;DHT22;16707;48.106;11.548;2022-12-29T10:47:00;11.20;56.90
29813;DHT22;16707;48.106;11.548;2022-12-29T10:49:39;11.20;57.30
29813;DHT22;16707;48.106;11.548;2022-12-29T10:52:09;11.30;57.60
29813;DHT22;16707;48.106;11.548;2022-12-29T10:54:42;11.20;57.30
29813;DHT22;16707;48.106;11.548;2022-12-29T10:57:22;11.30;57.60
29813;DHT22;16707;48.106;11.548;2022-12-29T10:59:51;11.30;57.40
29813;DHT22;16707;48.106;11.548;2022-12-29T11:02:51;11.40;56.60
29813;DHT22;16707;48.106;11.548;2022-12-29T11:05:27;11.60;57.10
29813;DHT22;16707;48.106;11.548;2022-12-29T11:08:01;11.80;56.40
29813;DHT22;16707;48.106;11.548;2022-12-29T11:10:34;11.80;55.70
29813;DHT22;16707;48.106;11.548;2022-12-29T11:13:04;11.80;55.60
29813;DHT22;16707;48.106;11.548;2022-12-29T11:15:39;12.20;54.70
29813;DHT22;16707;48.106;11.548;2022-12-29T11:18:18;12.30;54.60
29813;DHT22;16707;48.106;11.548;2022-12-29T11:20:48;12.40;54.40
29813;DHT22;16707;48.106;11.548;2022-12-29T11:23:29;12.60;52.80
29813;DHT22;16707;48.106;11.548;2022-12-29T11:26:16;13.60;62.60
29813;DHT22;16707;48.106;11.548;2022-12-29T11:28:46;13.90;49.50
29813;DHT22;16707;48.106;11.548;2022-12-29T11:31:17;13.70;49.00
29813;DHT22;16707;48.106;11.548;2022-12-29T11:33:45;13.80;49.20
29813;DHT22;16707;48.106;11.548;2022-12-29T11:36:16;14.00;48.60
29813;DHT22;16707;48.106;11.548;2022-12-29T11:38:50;13.70;47.80
29813;DHT22;16707;48.106;11.548;2022-12-29T11:41:22;13.80;48.40
29813;DHT22;16707;48.106;11.548;2022-12-29T11:43:51;13.70;48.30
29813;DHT22;16707;48.106;11.548;2022-12-29T11:46:22;13.70;48.40
29813;DHT22;16707;48.106;11.548;2022-12-29T11:48:52;13.90;47.80
29813;DHT22;16707;48.106;11.548;2022-12-29T11:51:26;13.90;47.30
29813;DHT22;16707;48.106;11.548;2022-12-29T11:54:06;13.80;47.00
29813;DHT22;16707;48.106;11.548;2022-12-29T11:56:38;13.80;46.70
29813;DHT22;16707;48.106;11.548;2022-12-29T11:59:39;13.70;46.90
29813;DHT22;16707;48.106;11.548;2022-12-29T12:02:33;13.50;47.50
29813;DHT22;16707;48.106;11.548;2022-12-29T12:05:09;13.50;47.40
29813;DHT22;16707;48.106;11.548;2022-12-29T12:07:43;13.50;47.60
29813;DHT22;16707;48.106;11.548;2022-12-29T12:10:25;13.40;48.40
29813;DHT22;16707;48.106;11.548;2022-12-29T12:12:59;13.40;49.00
29813;DHT22;16707;48.106;11.548;2022-12-29T12:15:36;13.40;48.60
29813;DHT22;16707;48.106;11.548;2022-12-29T12:18:10;13.40;49.40
29813;DHT22;16707;48.106;11.548;2022-12-29T12:20:45;13.30;49.80
29813;DHT22;16707;48.106;11.548;2022-12-29T12:23:25;13.30;50.50
29813;DHT22;16707;48.106;11.548;2022-12-29T12:26:09;13.30;50.00
29813;DHT22;16707;48.106;11.548;2022-12-29T12:28:44;13.20;49.40
29813;DHT22;16707;48.106;11.548;2022-12-29T12:31:26;13.20;49.40
29813;DHT22;16707;48.106;11.548;2022-12-29T12:34:04;13.40;49.70
29813;DHT22;16707;48.106;11.548;2022-12-29T12:36:53;13.60;49.10
29813;DHT22;16707;48.106;11.548;2022-12-29T12:39:27;13.60;49.30
29813;DHT22;16707;48.106;11.548;2022-12-29T12:42:10;13.60;49.30
29813;DHT22;16707;48.106;11.548;2022-12-29T12:44:54;13.60;49.80
29813;DHT22;16707;48.106;11.548;2022-12-29T12:47:40;13.60;49.60
29813;DHT22;16707;48.106;11.548;2022-12-29T12:50:20;13.60;49.50
29813;DHT22;16707;48.106;11.548;2022-12-29T12:53:02;13.70;49.70
29813;DHT22;16707;48.106;11.548;2022-12-29T12:55:56;13.50;50.50
29813;DHT22;16707;48.106;11.548;2022-12-29T12:58:38;13.40;51.20
29813;DHT22;16707;48.106;11.548;2022-12-29T13:01:18;13.30;51.30
29813;DHT22;16707;48.106;11.548;2022-12-29T13:04:08;13.30;51.70
29813;DHT22;16707;48.106;11.548;2022-12-29T13:06:47;13.20;51.60
29813;DHT22;16707;48.106;11.548;2022-12-29T13:09:29;13.20;51.60
29813;DHT22;16707;48.106;11.548;2022-12-29T13:12:10;13.20;52.00
29813;DHT22;16707;48.106;11.548;2022-12-29T13:14:54;13.30;52.40
29813;DHT22;16707;48.106;11.548;2022-12-29T13:17:29;13.20;52.20
29813;DHT22;16707;48.106;11.548;2022-12-29T13:20:04;13.20;53.40
29813;DHT22;16707;48.106;11.548;2022-12-29T13:22:42;13.10;53.30
29813;DHT22;16707;48.106;11.548;2022-12-29T13:25:29;13.10;53.90
29813;DHT22;16707;48.106;11.548;2022-12-29T13:28:06;13.00;54.10
29813;DHT22;16707;48.106;11.548;2022-12-29T13:30:41;13.00;53.70
29813;DHT22;16707;48.106;11.548;2022-12-29T13:33:19;13.00;53.90
29813;DHT22;16707;48.106;11.548;2022-12-29T13:35:56;13.10;53.40
29813;DHT22;16707;48.106;11.548;2022-12-29T13:38:29;13.00;53.00
29813;DHT22;16707;48.106;11.548;2022-12-29T13:41:01;12.90;52.80
29813;DHT22;16707;48.106;11.548;2022-12-29T13:43:33;12.90;53.30
29813;DHT22;16707;48.106;11.548;2022-12-29T13:46:05;12.70;52.90
29813;DHT22;16707;48.106;11.548;2022-12-29T13:48:45;12.60;53.80
29813;DHT22;16707;48.106;11.548;2022-12-29T13:51:13;12.50;54.20
29813;DHT22;16707;48.106;11.548;2022-12-29T13:54:00;12.50;53.70
29813;DHT22;16707;48.106;11.548;2022-12-29T13:56:34;12.40;54.40
29813;DHT22;16707;48.106;11.548;2022-12-29T13:59:12;12.40;54.40
29813;DHT22;16707;48.106;11.548;2022-12-29T14:01:49;12.40;54.50
29813;DHT22;16707;48.106;11.548;2022-12-29T14:04:22;12.20;54.70
29813;DHT22;16707;48.106;11.548;2022-12-29T14:07:01;12.10;55.20
29813;DHT22;16707;48.106;11.548;2022-12-29T14:09:42;12.10;55.30
29813;DHT22;16707;48.106;11.548;2022-12-29T14:12:31;12.00;55.90
29813;DHT22;16707;48.106;11.548;2022-12-29T14:15:15;11.90;55.90
29813;DHT22;16707;48.106;11.548;2022-12-29T14:18:02;11.80;56.80
29813;DHT22;16707;48.106;11.548;2022-12-29T14:20:29;11.70;57.80
29813;DHT22;16707;48.106;11.548;2022-12-29T14:22:58;11.70;57.30
29813;DHT22;16707;48.106;11.548;2022-12-29T14:28:35;11.50;57.10
29813;DHT22;16707;48.106;11.548;2022-12-29T14:31:07;11.50;57.50
29813;DHT22;16707;48.106;11.548;2022-12-29T14:37:17;11.30;58.50
29813;DHT22;16707;48.106;11.548;2022-12-29T14:39:48;11.30;58.60
29813;DHT22;16707;48.106;11.548;2022-12-29T14:42:19;11.20;58.90
29813;DHT22;16707;48.106;11.548;2022-12-29T14:44:49;11.10;59.30
29813;DHT22;16707;48.106;11.548;2022-12-29T14:47:20;10.90;59.80
29813;DHT22;16707;48.106;11.548;2022-12-29T14:49:49;10.80;60.70
29813;DHT22;16707;48.106;11.548;2022-12-29T14:52:19;10.70;61.40
29813;DHT22;16707;48.106;11.548;2022-12-29T14:54:52;10.70;61.00
29813;DHT22;16707;48.106;11.548;2022-12-29T14:57:28;10.70;62.00
29813;DHT22;16707;48.106;11.548;2022-12-29T15:00:05;10.80;61.00
29813;DHT22;16707;48.106;11.548;2022-12-29T15:02:38;10.70;61.10
29813;DHT22;16707;48.106;11.548;2022-12-29T15:05:22;10.70;61.50
29813;DHT22;16707;48.106;11.548;2022-12-29T15:07:50;10.80;61.00
29813;DHT22;16707;48.106;11.548;2022-12-29T15:10:18;10.80;60.00
29813;DHT22;16707;48.106;11.548;2022-12-29T15:12:51;10.60;61.30
29813;DHT22;16707;48.106;11.548;2022-12-29T15:15:23;10.50;61.90
29813;DHT22;16707;48.106;11.548;2022-12-29T15:17:52;10.50;62.10
29813;DHT22;16707;48.106;11.548;2022-12-29T15:20:25;10.50;60.80
29813;DHT22;16707;48.106;11.548;2022-12-29T15:22:55;10.40;60.40
29813;DHT22;16707;48.106;11.548;2022-12-29T15:25:23;10.20;61.30
29813;DHT22;16707;48.106;11.548;2022-12-29T15:27:51;10.10;61.30
29813;DHT22;16707;48.106;11.548;2022-12-29T15:30:19;10.00;61.60
29813;DHT22;16707;48.106;11.548;2022-12-29T15:32:54;9.90;61.80
29813;DHT22;16707;48.106;11.548;2022-12-29T15:35:24;9.70;62.80
29813;DHT22;16707;48.106;11.548;2022-12-29T15:37:52;9.60;63.00
29813;DHT22;16707;48.106;11.548;2022-12-29T15:40:25;9.50;63.70
29813;DHT22;16707;48.106;11.548;2022-12-29T15:43:17;9.50;64.40
29813;DHT22;16707;48.106;11.548;2022-12-29T15:45:49;9.40;64.20
29813;DHT22;16707;48.106;11.548;2022-12-29T15:48:24;9.40;63.70
29813;DHT22;16707;48.106;11.548;2022-12-29T15:50:52;9.40;63.70
29813;DHT22;16707;48.106;11.548;2022-12-29T15:53:21;9.30;64.70
29813;DHT22;16707;48.106;11.548;2022-12-29T15:55:55;9.30;64.80
29813;DHT22;16707;48.106;11.548;2022-12-29T15:58:25;9.20;65.10
29813;DHT22;16707;48.106;11.548;2022-12-29T16:00:56;9.10;65.80
29813;DHT22;16707;48.106;11.548;2022-12-29T16:03:26;9.10;66.30
29813;DHT22;16707;48.106;11.548;2022-12-29T16:06:07;9.10;67.20
29813;DHT22;16707;48.106;11.548;2022-12-29T16:08:36;9.00;67.50
29813;DHT22;16707;48.106;11.548;2022-12-29T16:11:18;8.90;67.80
29813;DHT22;16707;48.106;11.548;2022-12-29T16:13:48;8.90;68.20
29813;DHT22;16707;48.106;11.548;2022-12-29T16:16:18;8.80;70.20